Terminal Aerodrome Forecast
Issued by NWS Knoxville/Tri Cities, TN

Home | Current Version | Previous Version | Text Only | Print | Product List | Glossary On
Versions: 1 2 3 4 5 6 7 8 9 10 11 12 13 14 15 16 17 18 19 20 21 22 23 24 25 26 27 28 29 30 31 32 33 34 35 36 37 38 39 40 41 42 43
000
FTUS44 KMRX 020736 AAA
TAFTRI
TAF AMD
KTRI 020736Z 0208/0306 23008KT P6SM VCSH SCT015 OVC025
      TEMPO 0208/0212 BKN015
     FM021200 VRB03KT 6SM BR VCSH SCT015 OVC040
      TEMPO 0212/0216 4SM -SHRA BR SCT010 OVC022
     FM021600 24005KT P6SM VCTS SCT025CB BKN100
     FM022100 23010KT 4SM -TSRA BR BKN030CB OVC060
     FM030200 24005KT P6SM VCSH BKN030 OVC080=

USA.gov is the U.S. government's official web portal to all federal, state and local government web resources and services.